Time;durP1;ratioP1;P1;durP2;ratioP2;P2;SDS_P1;SDS_P2;PMS_P1;PMS_P2;Temp;Humidity;BMP_temperature;BMP_pressure;BME280_temperature;BME280_humidity;BME280_pressure;Samples;Min_cycle;Max_cycle;Signal;HPM_P1;HPM_P2
2023/06/19 00:01:53;;;;;;;;;;;20.10;96.50;;;;;;5033091;28;19925;-66
2023/06/19 00:04:26;;;;;;;;;;;20.10;96.00;;;;;;5032111;28;19929;-66
2023/06/19 00:06:59;;;;;;;;;;;20.10;96.10;;;;;;5045494;28;19932;-66
2023/06/19 00:09:31;;;;;;;;;;;20.10;96.10;;;;;;5018919;28;19930;-66
2023/06/19 00:12:04;;;;;;;;;;;20.00;96.50;;;;;;5021342;28;19933;-66
2023/06/19 00:14:36;;;;;;;;;;;20.00;96.70;;;;;;5013388;28;19932;-66
2023/06/19 00:17:08;;;;;;;;;;;19.90;96.80;;;;;;5013482;28;19932;-66
2023/06/19 00:19:40;;;;;;;;;;;19.80;97.30;;;;;;5017402;28;19961;-66
2023/06/19 00:22:07;;;;;;;;;;;19.70;96.90;;;;;;5020467;28;19929;-66
2023/06/19 00:24:38;;;;;;;;;;;19.70;97.10;;;;;;5015563;28;19925;-66
2023/06/19 00:27:10;;;;;;;;;;;19.70;97.10;;;;;;5012693;28;20293;-66
2023/06/19 00:29:42;;;;;;;;;;;19.50;96.90;;;;;;5029107;28;20385;-66
2023/06/19 00:32:14;;;;;;;;;;;19.50;97.10;;;;;;5015778;28;20424;-66
2023/06/19 00:34:45;;;;;;;;;;;19.50;97.00;;;;;;5017710;28;19929;-66
2023/06/19 00:37:17;;;;;;;;;;;19.50;97.10;;;;;;5013774;28;20301;-66
2023/06/19 00:39:49;;;;;;;;;;;19.50;96.90;;;;;;5011854;28;19925;-66
2023/06/19 00:42:21;;;;;;;;;;;19.50;96.90;;;;;;5018314;28;20676;-67
2023/06/19 00:44:47;;;;;;;;;;;19.50;96.90;;;;;;5029070;28;19925;-66
2023/06/19 00:47:19;;;;;;;;;;;19.40;97.00;;;;;;5027370;28;19925;-66
2023/06/19 00:49:51;;;;;;;;;;;19.40;97.00;;;;;;5028541;28;19929;-66
2023/06/19 00:52:23;;;;;;;;;;;19.30;96.70;;;;;;5031911;28;19936;-66
2023/06/19 00:54:55;;;;;;;;;;;19.30;96.50;;;;;;5026252;28;19926;-67
2023/06/19 00:57:26;;;;;;;;;;;19.40;96.50;;;;;;4999741;28;19925;-66
2023/06/19 00:59:58;;;;;;;;;;;19.40;96.20;;;;;;5017193;28;19925;-66
2023/06/19 01:02:30;;;;;;;;;;;19.40;96.00;;;;;;5022140;28;19987;-66
2023/06/19 01:05:03;;;;;;;;;;;19.40;96.00;;;;;;5004540;28;19951;-66
2023/06/19 01:07:48;;;;;;;;;;;19.50;95.70;;;;;;5018301;28;19930;-66
2023/06/19 01:10:30;;;;;;;;;;;19.50;95.50;;;;;;5017285;28;19983;-66
2023/06/19 01:13:05;;;;;;;;;;;19.50;95.40;;;;;;5013892;28;19936;-66
2023/06/19 01:15:38;;;;;;;;;;;19.60;95.60;;;;;;5028572;28;20382;-67
2023/06/19 01:18:13;;;;;;;;;;;19.60;95.70;;;;;;5027500;28;19961;-66
2023/06/19 01:20:45;;;;;;;;;;;19.60;96.00;;;;;;5026794;28;20024;-66
2023/06/19 01:23:12;;;;;;;;;;;19.60;95.80;;;;;;5027875;28;19932;-67
2023/06/19 01:25:39;;;;;;;;;;;19.60;96.00;;;;;;5018503;28;19964;-66
2023/06/19 01:28:11;;;;;;;;;;;19.60;95.30;;;;;;5020243;28;19925;-66
2023/06/19 01:30:43;;;;;;;;;;;19.70;94.60;;;;;;5027347;28;20016;-66
2023/06/19 01:33:20;;;;;;;;;;;19.80;94.50;;;;;;5022755;28;19925;-67
2023/06/19 01:35:51;;;;;;;;;;;19.90;94.90;;;;;;5024903;28;19929;-66
2023/06/19 01:38:27;;;;;;;;;;;19.90;94.80;;;;;;5027223;28;19959;-66
2023/06/19 01:41:02;;;;;;;;;;;20.00;96.00;;;;;;5023665;28;20037;-67
2023/06/19 01:43:33;;;;;;;;;;;19.90;97.30;;;;;;5029959;28;19971;-66
2023/06/19 01:46:05;;;;;;;;;;;19.80;97.40;;;;;;5026634;28;19925;-67
2023/06/19 01:48:38;;;;;;;;;;;19.70;97.80;;;;;;5024664;28;20015;-66
2023/06/19 01:51:10;;;;;;;;;;;19.70;98.20;;;;;;5022657;28;19933;-67
2023/06/19 01:53:38;;;;;;;;;;;19.70;97.40;;;;;;5018679;28;19929;-67
2023/06/19 01:56:10;;;;;;;;;;;19.70;96.90;;;;;;5026917;28;19948;-66
2023/06/19 01:58:42;;;;;;;;;;;19.70;96.10;;;;;;5016576;28;19929;-66
2023/06/19 02:01:14;;;;;;;;;;;19.80;96.20;;;;;;5026929;28;19934;-66
2023/06/19 02:03:45;;;;;;;;;;;19.80;97.60;;;;;;5012146;28;20028;-67
2023/06/19 02:06:18;;;;;;;;;;;19.80;97.70;;;;;;5015545;28;20284;-67
2023/06/19 02:08:46;;;;;;;;;;;19.70;98.30;;;;;;5026252;28;20411;-66
2023/06/19 02:11:18;;;;;;;;;;;19.70;98.60;;;;;;5029196;28;19925;-66
2023/06/19 02:13:49;;;;;;;;;;;19.70;98.90;;;;;;5016194;28;20024;-66
2023/06/19 02:16:21;;;;;;;;;;;19.70;99.50;;;;;;5025729;28;20020;-66
2023/06/19 02:18:55;;;;;;;;;;;19.70;99.20;;;;;;5035910;28;19929;-66
2023/06/19 02:21:28;;;;;;;;;;;19.70;98.70;;;;;;5022806;28;19935;-66
2023/06/19 02:24:00;;;;;;;;;;;19.70;99.10;;;;;;5017226;28;19957;-66
2023/06/19 02:26:31;;;;;;;;;;;19.60;99.90;;;;;;5014185;28;19984;-66
2023/06/19 02:29:03;;;;;;;;;;;19.60;99.90;;;;;;5012102;28;20020;-66
2023/06/19 02:31:35;;;;;;;;;;;19.60;99.90;;;;;;5016297;28;20044;-66
2023/06/19 02:34:07;;;;;;;;;;;19.60;99.90;;;;;;5018902;28;19929;-66
2023/06/19 02:36:39;;;;;;;;;;;19.50;99.90;;;;;;5026719;28;19932;-67
2023/06/19 02:39:10;;;;;;;;;;;19.50;99.90;;;;;;5017332;28;19995;-66
2023/06/19 02:41:46;;;;;;;;;;;19.50;99.90;;;;;;5017122;28;19933;-67
2023/06/19 02:44:18;;;;;;;;;;;19.50;99.90;;;;;;5035683;28;19925;-66
2023/06/19 02:46:49;;;;;;;;;;;19.50;99.90;;;;;;5009649;28;19929;-66
2023/06/19 02:49:21;;;;;;;;;;;19.50;99.90;;;;;;5023284;28;19930;-67
2023/06/19 02:51:53;;;;;;;;;;;19.50;99.90;;;;;;5023564;28;20283;-66
2023/06/19 02:54:25;;;;;;;;;;;19.50;99.90;;;;;;5012762;28;19925;-67
2023/06/19 02:56:59;;;;;;;;;;;19.50;99.90;;;;;;5010111;28;19976;-67
2023/06/19 02:59:31;;;;;;;;;;;19.50;99.90;;;;;;5018763;28;19929;-66
2023/06/19 03:01:58;;;;;;;;;;;19.50;99.90;;;;;;5025019;28;19936;-67
2023/06/19 03:04:29;;;;;;;;;;;19.50;99.90;;;;;;5023016;28;19925;-67
2023/06/19 03:07:02;;;;;;;;;;;19.50;99.90;;;;;;5021230;28;19926;-66
2023/06/19 03:09:34;;;;;;;;;;;19.50;99.90;;;;;;5020578;28;19925;-66
2023/06/19 03:12:06;;;;;;;;;;;19.50;99.90;;;;;;5026913;28;19933;-66
2023/06/19 03:14:39;;;;;;;;;;;19.50;99.90;;;;;;5029243;28;19932;-67
2023/06/19 03:17:06;;;;;;;;;;;19.50;99.90;;;;;;5029813;28;19975;-67
2023/06/19 03:19:38;;;;;;;;;;;19.50;99.90;;;;;;4999380;28;19932;-66
2023/06/19 03:22:10;;;;;;;;;;;19.50;99.90;;;;;;5033120;28;19925;-66
2023/06/19 03:24:42;;;;;;;;;;;19.40;99.90;;;;;;5030603;28;19979;-66
2023/06/19 03:27:18;;;;;;;;;;;19.30;99.90;;;;;;5022581;28;19971;-66
2023/06/19 03:29:45;;;;;;;;;;;19.30;99.90;;;;;;5026300;28;20475;-66
2023/06/19 03:32:18;;;;;;;;;;;19.20;99.90;;;;;;5024367;28;19929;-66
2023/06/19 03:34:50;;;;;;;;;;;19.10;99.90;;;;;;5022160;28;20378;-66
2023/06/19 03:37:22;;;;;;;;;;;19.00;99.90;;;;;;5020700;28;19926;-66
2023/06/19 03:39:54;;;;;;;;;;;19.00;99.90;;;;;;5023567;28;19929;-66
2023/06/19 03:42:29;;;;;;;;;;;18.90;99.90;;;;;;5029296;28;20308;-66
2023/06/19 03:44:58;;;;;;;;;;;18.90;99.90;;;;;;5032568;28;19948;-66
2023/06/19 03:47:29;;;;;;;;;;;18.90;99.90;;;;;;5031758;28;20377;-67
2023/06/19 03:49:56;;;;;;;;;;;19.00;99.90;;;;;;5019328;28;20028;-66
2023/06/19 03:52:28;;;;;;;;;;;19.30;99.90;;;;;;5019457;28;20429;-66
2023/06/19 03:55:00;;;;;;;;;;;19.50;99.90;;;;;;5017660;28;19932;-67
2023/06/19 03:57:27;;;;;;;;;;;19.70;99.90;;;;;;5030392;28;20604;-66
2023/06/19 03:59:59;;;;;;;;;;;19.80;99.90;;;;;;5022935;28;19979;-66
2023/06/19 04:02:38;;;;;;;;;;;19.90;99.90;;;;;;5024492;28;20004;-66
2023/06/19 04:05:09;;;;;;;;;;;20.00;99.90;;;;;;5028645;28;19933;-66
2023/06/19 04:07:42;;;;;;;;;;;20.00;99.90;;;;;;5018386;28;20547;-66
2023/06/19 04:10:14;;;;;;;;;;;20.10;99.90;;;;;;5012524;28;19925;-66
2023/06/19 04:12:47;;;;;;;;;;;20.10;99.90;;;;;;5023788;28;19926;-66
2023/06/19 04:15:19;;;;;;;;;;;20.20;99.90;;;;;;5021780;28;19929;-66
2023/06/19 04:17:52;;;;;;;;;;;20.20;99.90;;;;;;5022581;28;19998;-66
2023/06/19 04:20:24;;;;;;;;;;;20.30;99.90;;;;;;5029945;28;20083;-66
2023/06/19 04:22:55;;;;;;;;;;;20.30;99.90;;;;;;5026971;28;19932;-66
2023/06/19 04:25:22;;;;;;;;;;;20.40;99.90;;;;;;5030697;28;20061;-68
2023/06/19 04:27:55;;;;;;;;;;;20.40;99.90;;;;;;5032008;28;20020;-66
2023/06/19 04:30:27;;;;;;;;;;;20.40;99.90;;;;;;5030181;28;19925;-66
2023/06/19 04:32:59;;;;;;;;;;;20.50;99.90;;;;;;5026741;28;20282;-66
2023/06/19 04:35:30;;;;;;;;;;;20.50;99.90;;;;;;5026748;28;19925;-66
2023/06/19 04:38:02;;;;;;;;;;;20.50;99.90;;;;;;5026096;28;19929;-66
2023/06/19 04:40:34;;;;;;;;;;;20.50;99.90;;;;;;5023423;28;19964;-66
2023/06/19 04:43:02;;;;;;;;;;;20.50;99.90;;;;;;5023365;28;20283;-66
2023/06/19 04:45:34;;;;;;;;;;;20.60;99.90;;;;;;5025054;28;20032;-66
2023/06/19 04:48:05;;;;;;;;;;;20.60;99.90;;;;;;5026336;28;19932;-66
2023/06/19 04:50:37;;;;;;;;;;;20.60;99.90;;;;;;5035403;28;19933;-66
2023/06/19 04:53:09;;;;;;;;;;;20.70;99.90;;;;;;5021411;28;19926;-66
2023/06/19 04:55:41;;;;;;;;;;;20.70;99.90;;;;;;5016349;28;19932;-66
2023/06/19 04:58:13;;;;;;;;;;;20.70;99.90;;;;;;5014410;28;20142;-66
2023/06/19 05:00:45;;;;;;;;;;;20.70;99.90;;;;;;5011144;28;19929;-66
2023/06/19 05:03:17;;;;;;;;;;;20.80;99.90;;;;;;5026478;28;19926;-66
2023/06/19 05:05:49;;;;;;;;;;;20.90;99.90;;;;;;5024814;28;19925;-66
2023/06/19 05:08:21;;;;;;;;;;;20.90;99.90;;;;;;5022580;28;19929;-66
2023/06/19 05:10:53;;;;;;;;;;;20.90;99.90;;;;;;5025139;28;19925;-66
2023/06/19 05:13:25;;;;;;;;;;;21.00;99.90;;;;;;5028712;28;19929;-66
2023/06/19 05:15:51;;;;;;;;;;;21.00;99.90;;;;;;5022285;28;20420;-66
2023/06/19 05:18:23;;;;;;;;;;;21.00;99.90;;;;;;5025778;28;20772;-66
2023/06/19 05:20:55;;;;;;;;;;;21.00;99.90;;;;;;5024348;28;19952;-66
2023/06/19 05:23:22;;;;;;;;;;;21.10;99.90;;;;;;5022180;28;20464;-66
2023/06/19 05:25:49;;;;;;;;;;;21.20;99.90;;;;;;5030611;28;20024;-66
2023/06/19 05:28:20;;;;;;;;;;;21.30;99.90;;;;;;5027010;28;19925;-66
2023/06/19 05:30:53;;;;;;;;;;;21.30;99.90;;;;;;5027344;28;20020;-67
2023/06/19 05:33:25;;;;;;;;;;;21.40;99.90;;;;;;5011874;28;20312;-66
2023/06/19 05:35:53;;;;;;;;;;;21.50;99.90;;;;;;5020391;28;19960;-66
2023/06/19 05:38:25;;;;;;;;;;;21.60;99.90;;;;;;5022594;28;19929;-66
2023/06/19 05:40:58;;;;;;;;;;;21.80;99.90;;;;;;5022379;28;19926;-66
2023/06/19 05:43:30;;;;;;;;;;;21.80;99.90;;;;;;5026002;28;19925;-66
2023/06/19 05:45:59;;;;;;;;;;;22.00;99.90;;;;;;5019789;28;20032;-66
2023/06/19 05:48:31;;;;;;;;;;;22.10;99.90;;;;;;5017632;28;19936;-66
2023/06/19 05:51:02;;;;;;;;;;;22.20;99.90;;;;;;5013462;28;19960;-66
2023/06/19 05:53:34;;;;;;;;;;;22.30;99.90;;;;;;5013395;28;20019;-66
2023/06/19 05:56:06;;;;;;;;;;;22.30;99.90;;;;;;5015859;28;19929;-66
2023/06/19 05:58:39;;;;;;;;;;;22.30;99.90;;;;;;5017634;28;19929;-66
2023/06/19 06:01:10;;;;;;;;;;;22.40;99.90;;;;;;5019589;28;19948;-66
2023/06/19 06:03:42;;;;;;;;;;;22.40;99.90;;;;;;5022046;28;20459;-66
2023/06/19 06:06:14;;;;;;;;;;;22.40;99.90;;;;;;5022508;28;19936;-66
2023/06/19 06:08:46;;;;;;;;;;;22.30;99.90;;;;;;5022962;28;19933;-66
2023/06/19 06:11:13;;;;;;;;;;;22.30;99.90;;;;;;5029195;28;20388;-66
2023/06/19 06:13:45;;;;;;;;;;;22.20;99.90;;;;;;5029032;28;19925;-66
2023/06/19 06:16:16;;;;;;;;;;;22.20;99.90;;;;;;5019345;28;19929;-66
2023/06/19 06:18:44;;;;;;;;;;;22.20;99.90;;;;;;5013376;28;20455;-66
2023/06/19 06:21:16;;;;;;;;;;;22.20;99.90;;;;;;5015173;28;19937;-66
2023/06/19 06:23:48;;;;;;;;;;;22.20;99.90;;;;;;5023852;28;19932;-66
2023/06/19 06:26:21;;;;;;;;;;;22.20;99.90;;;;;;5023522;28;19949;-66
2023/06/19 06:28:53;;;;;;;;;;;22.20;99.90;;;;;;5026730;28;19926;-66
2023/06/19 06:31:24;;;;;;;;;;;22.20;99.90;;;;;;5018929;28;19935;-66
2023/06/19 06:33:56;;;;;;;;;;;22.30;99.90;;;;;;5025523;28;19932;-66
2023/06/19 06:36:28;;;;;;;;;;;22.30;99.90;;;;;;5015038;28;19949;-66
2023/06/19 06:39:00;;;;;;;;;;;22.30;99.90;;;;;;5020388;28;19925;-66
2023/06/19 06:41:31;;;;;;;;;;;22.40;99.90;;;;;;5025554;28;19925;-66
2023/06/19 06:44:05;;;;;;;;;;;22.50;99.90;;;;;;5024467;28;19926;-66
2023/06/19 06:46:32;;;;;;;;;;;22.60;99.90;;;;;;5015279;28;19956;-66
2023/06/19 06:49:04;;;;;;;;;;;22.60;99.90;;;;;;5018530;28;19959;-66
2023/06/19 06:51:35;;;;;;;;;;;22.70;99.90;;;;;;5024078;28;19929;-66
2023/06/19 06:54:07;;;;;;;;;;;22.70;99.90;;;;;;5025677;28;19929;-66
2023/06/19 06:56:34;;;;;;;;;;;22.60;99.90;;;;;;5027049;28;20028;-66
2023/06/19 06:59:06;;;;;;;;;;;22.60;99.90;;;;;;5029226;28;19949;-66
2023/06/19 07:01:38;;;;;;;;;;;22.50;99.90;;;;;;5030219;28;19925;-66
2023/06/19 07:04:09;;;;;;;;;;;22.50;99.90;;;;;;5019250;28;19932;-66
2023/06/19 07:06:41;;;;;;;;;;;22.40;99.90;;;;;;5034925;28;19936;-66
2023/06/19 07:09:09;;;;;;;;;;;22.40;99.90;;;;;;5030807;28;20419;-66
2023/06/19 07:11:41;;;;;;;;;;;22.40;99.90;;;;;;5027566;28;19937;-66
2023/06/19 07:14:13;;;;;;;;;;;22.40;99.90;;;;;;5014723;28;19929;-66
2023/06/19 07:16:45;;;;;;;;;;;22.40;99.90;;;;;;5014702;28;20304;-66
2023/06/19 07:19:16;;;;;;;;;;;22.50;99.90;;;;;;5025214;28;19925;-66
2023/06/19 07:21:51;;;;;;;;;;;22.50;99.90;;;;;;5026274;28;19947;-66
2023/06/19 07:24:23;;;;;;;;;;;22.50;99.90;;;;;;5029537;28;19925;-66
2023/06/19 07:26:56;;;;;;;;;;;22.50;99.90;;;;;;5021143;28;20316;-66
2023/06/19 07:29:28;;;;;;;;;;;22.50;99.90;;;;;;5031792;28;19925;-66
2023/06/19 07:32:02;;;;;;;;;;;22.50;99.90;;;;;;5032052;28;19925;-66
2023/06/19 07:34:29;;;;;;;;;;;22.60;99.90;;;;;;5030083;28;19964;-66
2023/06/19 07:37:00;;;;;;;;;;;22.60;99.90;;;;;;5027948;28;19936;-66
2023/06/19 07:39:27;;;;;;;;;;;22.60;99.90;;;;;;5022582;28;19933;-66
2023/06/19 07:41:59;;;;;;;;;;;22.60;99.90;;;;;;5025651;28;20016;-66
2023/06/19 07:44:31;;;;;;;;;;;22.60;99.90;;;;;;5023768;28;19932;-66
2023/06/19 07:47:03;;;;;;;;;;;22.70;99.90;;;;;;5020183;28;19926;-66
2023/06/19 07:49:35;;;;;;;;;;;22.80;99.90;;;;;;5021917;28;19957;-66
2023/06/19 07:52:09;;;;;;;;;;;22.80;99.90;;;;;;5030986;28;19939;-66
2023/06/19 07:54:51;;;;;;;;;;;22.80;99.90;;;;;;5018317;28;19937;-66
2023/06/19 07:57:18;;;;;;;;;;;23.00;99.90;;;;;;5024453;28;19973;-66
2023/06/19 07:59:51;;;;;;;;;;;23.00;99.90;;;;;;5027744;28;19980;-66
2023/06/19 08:02:23;;;;;;;;;;;23.00;99.90;;;;;;5019253;28;19929;-66
2023/06/19 08:04:55;;;;;;;;;;;23.00;99.90;;;;;;5021406;28;19926;-66
2023/06/19 08:07:26;;;;;;;;;;;23.20;99.90;;;;;;5024137;28;20300;-66
2023/06/19 08:09:58;;;;;;;;;;;23.20;99.90;;;;;;5020739;28;20484;-66
2023/06/19 08:12:32;;;;;;;;;;;23.40;99.90;;;;;;5024547;28;20008;-66
2023/06/19 08:15:04;;;;;;;;;;;23.60;99.90;;;;;;5018288;28;20423;-66
2023/06/19 08:17:36;;;;;;;;;;;23.60;99.90;;;;;;5023987;28;20313;-66
2023/06/19 08:20:05;;;;;;;;;;;23.60;99.90;;;;;;5014842;28;20023;-66
2023/06/19 08:22:36;;;;;;;;;;;23.60;99.90;;;;;;5028357;28;19926;-66
2023/06/19 08:25:04;;;;;;;;;;;23.70;99.90;;;;;;5016725;28;19929;-66
2023/06/19 08:27:36;;;;;;;;;;;23.80;99.90;;;;;;5023081;28;19925;-66
2023/06/19 08:30:08;;;;;;;;;;;23.80;99.90;;;;;;5023602;28;20004;-66
2023/06/19 08:32:40;;;;;;;;;;;23.80;99.90;;;;;;5027503;28;19933;-66
2023/06/19 08:35:11;;;;;;;;;;;23.80;99.90;;;;;;5022264;28;19929;-64
2023/06/19 08:37:43;;;;;;;;;;;23.80;99.90;;;;;;5019873;28;19926;-64
2023/06/19 08:40:15;;;;;;;;;;;23.90;99.90;;;;;;5016099;28;19932;-64
2023/06/19 08:42:43;;;;;;;;;;;24.00;99.90;;;;;;5012899;28;19936;-64
2023/06/19 08:45:15;;;;;;;;;;;24.00;99.90;;;;;;5018799;28;20309;-64
2023/06/19 08:47:48;;;;;;;;;;;24.00;99.90;;;;;;5016447;28;19971;-64
2023/06/19 08:50:20;;;;;;;;;;;24.10;99.90;;;;;;5014890;28;19926;-64
2023/06/19 08:52:51;;;;;;;;;;;24.20;99.90;;;;;;5026367;28;19930;-64
2023/06/19 08:55:23;;;;;;;;;;;24.50;99.90;;;;;;5026428;28;20471;-64
2023/06/19 08:57:55;;;;;;;;;;;24.70;99.90;;;;;;5023277;28;19925;-64
2023/06/19 09:00:28;;;;;;;;;;;24.80;99.90;;;;;;5021996;28;20429;-64
2023/06/19 09:03:02;;;;;;;;;;;24.80;99.90;;;;;;5027381;28;19925;-64
2023/06/19 09:05:40;;;;;;;;;;;24.80;99.90;;;;;;5014851;28;20309;-64
2023/06/19 09:08:13;;;;;;;;;;;24.80;99.50;;;;;;5028056;28;19925;-64
2023/06/19 09:11:04;;;;;;;;;;;24.70;99.30;;;;;;5022414;28;19925;-64
2023/06/19 09:13:36;;;;;;;;;;;24.50;99.70;;;;;;5027982;28;19932;-64
2023/06/19 09:16:08;;;;;;;;;;;24.50;99.90;;;;;;5022326;28;19983;-64
2023/06/19 09:18:44;;;;;;;;;;;24.50;99.70;;;;;;5029961;28;20316;-64
2023/06/19 09:21:19;;;;;;;;;;;24.40;99.90;;;;;;5028849;28;19933;-64
2023/06/19 09:23:46;;;;;;;;;;;24.30;99.90;;;;;;5024053;28;20020;-64
2023/06/19 09:26:24;;;;;;;;;;;24.20;99.90;;;;;;5024219;28;19929;-64
2023/06/19 09:28:56;;;;;;;;;;;24.30;99.90;;;;;;5019438;28;19926;-64
2023/06/19 09:31:33;;;;;;;;;;;24.40;99.90;;;;;;5016947;28;20138;-64
2023/06/19 09:34:05;;;;;;;;;;;24.60;99.90;;;;;;5027477;28;20360;-64
2023/06/19 09:36:37;;;;;;;;;;;24.90;99.50;;;;;;5026259;28;19937;-64
2023/06/19 09:39:10;;;;;;;;;;;25.10;99.70;;;;;;5025812;28;19936;-64
2023/06/19 09:41:42;;;;;;;;;;;25.30;98.60;;;;;;5029261;28;19925;-67
2023/06/19 09:44:14;;;;;;;;;;;25.20;98.10;;;;;;5021407;28;19925;-66
2023/06/19 09:46:43;;;;;;;;;;;25.40;98.20;;;;;;5028143;28;19929;-67
2023/06/19 09:49:15;;;;;;;;;;;25.60;98.00;;;;;;5027480;28;19976;-66
2023/06/19 09:51:50;;;;;;;;;;;25.60;98.00;;;;;;5026621;28;20282;-66
2023/06/19 09:54:19;;;;;;;;;;;25.60;97.70;;;;;;5026968;28;20395;-66
2023/06/19 09:56:51;;;;;;;;;;;25.60;97.40;;;;;;5019419;28;19925;-66
2023/06/19 09:59:24;;;;;;;;;;;25.60;97.10;;;;;;5021144;28;19930;-66
2023/06/19 10:01:56;;;;;;;;;;;25.70;96.00;;;;;;5017893;28;19926;-66
2023/06/19 10:04:29;;;;;;;;;;;25.80;95.90;;;;;;5027451;28;19939;-67
2023/06/19 10:07:01;;;;;;;;;;;25.70;95.10;;;;;;5021295;28;20267;-66
2023/06/19 10:09:32;;;;;;;;;;;25.70;95.70;;;;;;5027634;28;19926;-66
2023/06/19 10:12:11;;;;;;;;;;;25.80;96.00;;;;;;5028755;28;19948;-66
2023/06/19 10:14:47;;;;;;;;;;;25.80;95.80;;;;;;5024085;28;19980;-66
2023/06/19 10:17:20;;;;;;;;;;;25.70;96.60;;;;;;5026701;28;20357;-66
2023/06/19 10:19:52;;;;;;;;;;;25.80;95.40;;;;;;5018601;28;19929;-67
2023/06/19 10:22:29;;;;;;;;;;;26.00;95.40;;;;;;5021214;28;19952;-66
2023/06/19 10:25:01;;;;;;;;;;;26.00;95.40;;;;;;5026691;28;19925;-66
2023/06/19 10:27:33;;;;;;;;;;;26.20;95.50;;;;;;5017612;28;19983;-66
2023/06/19 10:30:16;;;;;;;;;;;26.20;95.50;;;;;;5029236;28;20020;-66
2023/06/19 10:32:48;;;;;;;;;;;26.40;95.10;;;;;;5032265;28;19925;-67
2023/06/19 10:35:24;;;;;;;;;;;26.50;95.30;;;;;;5024580;28;20316;-66
2023/06/19 10:37:55;;;;;;;;;;;26.60;94.80;;;;;;5023264;28;19975;-66
2023/06/19 10:40:28;;;;;;;;;;;26.80;94.70;;;;;;5015003;28;19981;-67
2023/06/19 10:42:55;;;;;;;;;;;26.70;94.00;;;;;;5027112;28;19954;-67
2023/06/19 10:45:28;;;;;;;;;;;26.80;94.30;;;;;;5022045;28;19929;-67
2023/06/19 10:48:03;;;;;;;;;;;27.00;93.60;;;;;;5024610;28;20040;-67
2023/06/19 10:50:35;;;;;;;;;;;27.00;93.20;;;;;;5029815;28;20472;-67
2023/06/19 10:53:02;;;;;;;;;;;27.20;92.80;;;;;;5022563;28;19925;-67
2023/06/19 10:55:28;;;;;;;;;;;27.30;92.70;;;;;;5021581;28;19965;-67
2023/06/19 10:58:00;;;;;;;;;;;27.30;92.70;;;;;;5022443;28;19925;-66
2023/06/19 11:00:33;;;;;;;;;;;27.30;93.00;;;;;;5024499;28;20302;-67
2023/06/19 11:03:05;;;;;;;;;;;27.30;92.70;;;;;;5023413;28;19934;-67
2023/06/19 11:05:36;;;;;;;;;;;27.40;92.60;;;;;;5023185;28;19925;-67
2023/06/19 11:08:08;;;;;;;;;;;27.50;93.10;;;;;;5026108;28;19933;-67
2023/06/19 11:10:41;;;;;;;;;;;27.70;92.10;;;;;;5020181;28;19929;-66
2023/06/19 11:13:17;;;;;;;;;;;27.90;91.60;;;;;;5031830;28;19936;-67
2023/06/19 11:15:52;;;;;;;;;;;28.10;91.10;;;;;;5029729;28;20010;-67
2023/06/19 11:18:19;;;;;;;;;;;28.10;91.00;;;;;;5033519;28;19933;-66
2023/06/19 11:20:51;;;;;;;;;;;28.40;90.40;;;;;;5027470;28;19929;-66
2023/06/19 11:23:27;;;;;;;;;;;28.30;90.40;;;;;;5030237;28;19945;-67
2023/06/19 11:26:02;;;;;;;;;;;28.40;90.70;;;;;;5029700;28;20409;-66
2023/06/19 11:28:34;;;;;;;;;;;28.30;89.90;;;;;;5029396;28;19929;-66
2023/06/19 11:31:06;;;;;;;;;;;28.20;90.70;;;;;;5025229;28;19932;-66
2023/06/19 11:33:37;;;;;;;;;;;28.20;90.50;;;;;;5030644;28;20020;-66
2023/06/19 11:36:04;;;;;;;;;;;28.10;90.10;;;;;;5028284;28;20435;-66
2023/06/19 11:38:38;;;;;;;;;;;28.20;90.50;;;;;;5018253;28;19932;-66
2023/06/19 11:41:10;;;;;;;;;;;28.40;90.00;;;;;;5027285;28;19975;-67
2023/06/19 11:43:42;;;;;;;;;;;28.50;90.20;;;;;;5029509;28;19983;-66
2023/06/19 11:46:15;;;;;;;;;;;28.70;88.40;;;;;;5021007;28;19972;-66
2023/06/19 11:48:47;;;;;;;;;;;29.00;88.80;;;;;;5028315;28;19931;-67
2023/06/19 11:51:19;;;;;;;;;;;29.30;88.10;;;;;;5024310;28;19934;-66
2023/06/19 11:53:52;;;;;;;;;;;29.40;86.00;;;;;;5029242;28;19932;-66
2023/06/19 11:56:23;;;;;;;;;;;29.50;86.60;;;;;;5029416;28;19948;-66
2023/06/19 11:58:55;;;;;;;;;;;29.70;84.00;;;;;;5030587;28;19930;-66
2023/06/19 12:01:27;;;;;;;;;;;29.70;80.90;;;;;;5026430;28;19964;-66
2023/06/19 12:03:59;;;;;;;;;;;29.60;80.30;;;;;;5021637;28;19933;-66
2023/06/19 12:06:31;;;;;;;;;;;29.70;81.60;;;;;;5024583;28;19932;-66
2023/06/19 12:09:04;;;;;;;;;;;29.80;81.50;;;;;;5024213;28;19929;-66
2023/06/19 12:11:36;;;;;;;;;;;29.90;81.10;;;;;;5029876;28;20391;-66
2023/06/19 12:14:07;;;;;;;;;;;29.90;77.80;;;;;;5028010;28;19940;-66
2023/06/19 12:16:34;;;;;;;;;;;29.80;72.30;;;;;;5029295;28;19931;-66
2023/06/19 12:19:06;;;;;;;;;;;29.80;73.60;;;;;;5028549;28;20008;-66
2023/06/19 12:21:38;;;;;;;;;;;29.90;73.60;;;;;;5029620;28;19928;-66
2023/06/19 12:24:09;;;;;;;;;;;29.90;74.10;;;;;;5028787;28;19933;-66
2023/06/19 12:26:39;;;;;;;;;;;30.00;72.30;;;;;;5023641;28;19929;-66
2023/06/19 12:29:11;;;;;;;;;;;30.00;70.80;;;;;;5025516;28;20329;-66
2023/06/19 12:31:43;;;;;;;;;;;30.00;69.50;;;;;;5029172;28;19935;-66
2023/06/19 12:34:11;;;;;;;;;;;29.90;69.70;;;;;;5027487;28;19936;-66
2023/06/19 12:36:42;;;;;;;;;;;30.00;69.70;;;;;;5024996;28;19968;-66
2023/06/19 12:39:16;;;;;;;;;;;29.90;70.60;;;;;;5026913;28;19928;-66
2023/06/19 12:41:47;;;;;;;;;;;29.80;71.30;;;;;;5024628;28;20351;-66
2023/06/19 12:44:21;;;;;;;;;;;30.00;70.60;;;;;;5028200;28;19933;-66
2023/06/19 12:46:53;;;;;;;;;;;30.20;70.00;;;;;;5028251;28;19929;-66
2023/06/19 12:49:25;;;;;;;;;;;30.20;69.40;;;;;;5027368;28;19957;-66
2023/06/19 12:51:52;;;;;;;;;;;30.40;70.30;;;;;;5025658;28;19933;-66
2023/06/19 12:54:25;;;;;;;;;;;30.60;69.70;;;;;;5027046;28;20273;-66
2023/06/19 12:56:57;;;;;;;;;;;30.90;68.80;;;;;;5026819;28;19929;-66
2023/06/19 12:59:24;;;;;;;;;;;30.90;68.80;;;;;;5032037;28;19935;-66
2023/06/19 13:01:56;;;;;;;;;;;31.10;67.90;;;;;;5026896;28;19984;-66
2023/06/19 13:04:28;;;;;;;;;;;31.00;68.60;;;;;;5028080;28;19936;-66
2023/06/19 13:07:00;;;;;;;;;;;31.00;68.80;;;;;;5027977;28;19928;-66
2023/06/19 13:09:32;;;;;;;;;;;31.10;68.30;;;;;;5024458;28;19925;-66
2023/06/19 13:12:04;;;;;;;;;;;31.30;66.90;;;;;;5027765;28;19983;-66
2023/06/19 13:14:37;;;;;;;;;;;31.40;67.10;;;;;;5025454;28;20312;-66
2023/06/19 13:17:09;;;;;;;;;;;31.80;66.50;;;;;;5027240;28;20401;-66
2023/06/19 13:19:40;;;;;;;;;;;32.10;65.40;;;;;;5024931;28;20555;-67
2023/06/19 13:22:07;;;;;;;;;;;32.20;64.70;;;;;;5021423;28;20017;-66
2023/06/19 13:24:39;;;;;;;;;;;32.10;63.40;;;;;;5027851;28;20020;-66
2023/06/19 13:27:11;;;;;;;;;;;32.10;65.40;;;;;;5027582;28;20427;-66
2023/06/19 13:29:44;;;;;;;;;;;32.30;63.60;;;;;;5025173;28;19936;-66
2023/06/19 13:32:16;;;;;;;;;;;32.70;64.50;;;;;;5029327;28;19964;-66
2023/06/19 13:34:48;;;;;;;;;;;32.90;63.90;;;;;;5029354;28;19956;-66
2023/06/19 13:37:19;;;;;;;;;;;33.00;62.70;;;;;;5035303;28;19933;-66
2023/06/19 13:39:52;;;;;;;;;;;32.90;62.60;;;;;;5027572;28;19929;-66
2023/06/19 13:42:24;;;;;;;;;;;32.90;63.20;;;;;;5023419;28;19929;-66
2023/06/19 13:44:56;;;;;;;;;;;32.60;62.50;;;;;;5025904;28;19929;-66
2023/06/19 13:47:28;;;;;;;;;;;32.60;64.00;;;;;;5025888;28;19929;-66
2023/06/19 13:50:01;;;;;;;;;;;32.40;62.30;;;;;;5012196;28;19931;-66
2023/06/19 13:52:28;;;;;;;;;;;32.70;62.70;;;;;;5028561;28;19929;-67
2023/06/19 13:55:02;;;;;;;;;;;32.90;63.90;;;;;;5028784;28;19944;-67
2023/06/19 13:57:28;;;;;;;;;;;33.10;63.30;;;;;;5027710;28;19957;-67
2023/06/19 13:59:55;;;;;;;;;;;33.10;62.80;;;;;;4954333;28;1949874;-66
2023/06/19 14:02:27;;;;;;;;;;;33.10;61.80;;;;;;5018849;28;19929;-66
2023/06/19 14:04:54;;;;;;;;;;;33.00;62.40;;;;;;5022792;28;20036;-67
2023/06/19 14:07:26;;;;;;;;;;;33.20;61.50;;;;;;5023964;28;20352;-66
2023/06/19 14:09:59;;;;;;;;;;;33.20;62.00;;;;;;5028932;28;19925;-66
2023/06/19 14:12:31;;;;;;;;;;;33.40;60.80;;;;;;5019471;28;19932;-67
2023/06/19 14:15:03;;;;;;;;;;;33.40;60.00;;;;;;5025080;28;19936;-66
2023/06/19 14:17:34;;;;;;;;;;;33.50;59.50;;;;;;5023012;28;19925;-67
2023/06/19 14:20:07;;;;;;;;;;;33.50;59.20;;;;;;5024636;28;20028;-66
2023/06/19 14:22:34;;;;;;;;;;;33.80;59.60;;;;;;5025813;28;20016;-67
2023/06/19 14:25:06;;;;;;;;;;;33.60;59.30;;;;;;5016439;28;19925;-66
2023/06/19 14:27:38;;;;;;;;;;;33.80;58.70;;;;;;5025776;28;19936;-66
2023/06/19 14:30:10;;;;;;;;;;;33.80;59.60;;;;;;5022020;28;20409;-67
2023/06/19 14:32:42;;;;;;;;;;;34.10;58.20;;;;;;5025351;28;19929;-66
2023/06/19 14:35:13;;;;;;;;;;;34.20;58.00;;;;;;5028829;28;20303;-66
2023/06/19 14:37:45;;;;;;;;;;;34.10;57.90;;;;;;5025499;28;19925;-67
2023/06/19 14:40:17;;;;;;;;;;;34.10;57.90;;;;;;5024055;28;19929;-67
2023/06/19 14:42:49;;;;;;;;;;;34.00;57.60;;;;;;5028181;28;19940;-67